Time;durP1;ratioP1;P1;durP2;ratioP2;P2;SDS_P1;SDS_P2;PMS_P1;PMS_P2;Temp;Humidity;BMP_temperature;BMP_pressure;BME280_temperature;BME280_humidity;BME280_pressure;Samples;Min_cycle;Max_cycle;Signal;HPM_P1;HPM_P2
2022/05/24 00:01:04;;;;;;;24.10;9.23;;;16.10;99.90;;;16.46;90.51;99917.69;4826936;29;20554;-61
2022/05/24 00:03:37;;;;;;;27.27;9.40;;;16.10;99.90;;;16.42;90.26;99907.19;4843547;29;20478;-61
2022/05/24 00:06:07;;;;;;;28.35;9.30;;;16.00;99.90;;;16.35;90.07;99914.63;4843236;29;20054;-61
2022/05/24 00:08:37;;;;;;;20.80;9.05;;;16.00;99.90;;;16.33;90.10;99908.47;4843522;29;20144;-61
2022/05/24 00:11:07;;;;;;;25.63;10.43;;;16.00;99.90;;;16.35;90.03;99913.75;4843167;29;20060;-61
2022/05/24 00:13:35;;;;;;;25.77;9.38;;;16.00;99.90;;;16.42;89.95;99917.88;4843460;29;20521;-61
2022/05/24 00:16:05;;;;;;;27.17;9.40;;;16.00;99.90;;;16.40;89.35;99917.06;4843349;29;20430;-61
2022/05/24 00:18:33;;;;;;;26.48;9.80;;;16.00;99.90;;;16.29;89.44;99914.88;4843037;29;20057;-61
2022/05/24 00:21:05;;;;;;;23.27;10.13;;;15.90;99.90;;;16.34;89.81;99918.19;4843323;29;20049;-61
2022/05/24 00:23:35;;;;;;;31.10;11.63;;;15.90;99.90;;;16.24;89.36;99901.72;4843039;29;20473;-61
2022/05/24 00:26:09;;;;;;;25.60;11.88;;;16.00;99.90;;;16.35;89.47;99911.06;4843081;29;20140;-61
2022/05/24 00:28:38;;;;;;;28.42;13.35;;;16.00;99.90;;;16.49;89.38;99911.38;4843443;29;20128;-61
2022/05/24 00:31:07;;;;;;;32.47;15.02;;;16.00;99.90;;;16.48;88.94;99906.94;4842967;29;20564;-61
2022/05/24 00:33:35;;;;;;;28.48;16.00;;;16.10;99.90;;;16.53;88.69;99908.50;4842963;29;20042;-61
2022/05/24 00:36:04;;;;;;;33.47;15.63;;;16.10;99.90;;;16.60;88.06;99907.31;4842895;29;20147;-61
2022/05/24 00:38:36;;;;;;;31.95;13.80;;;16.20;99.90;;;16.56;87.49;99892.34;4843174;29;20050;-61
2022/05/24 00:41:24;;;;;;;30.90;13.40;;;16.20;99.90;;;16.49;86.68;99890.88;4843213;29;20046;-61
2022/05/24 00:43:58;;;;;;;31.92;14.00;;;16.10;99.90;;;16.51;86.42;99907.69;4843298;29;20085;-61
2022/05/24 00:46:29;;;;;;;25.67;12.75;;;16.10;99.90;;;16.55;86.16;99901.28;4843317;29;20133;-61
2022/05/24 00:49:04;;;;;;;32.25;13.73;;;16.20;99.90;;;16.39;86.41;99910.88;4843225;29;20050;-61
2022/05/24 00:51:38;;;;;;;25.02;12.73;;;16.10;99.90;;;16.37;86.93;99906.53;4843107;29;20148;-61
2022/05/24 00:54:07;;;;;;;24.42;13.65;;;16.00;99.90;;;16.29;86.68;99920.22;4843392;29;20129;-61
2022/05/24 00:56:52;;;;;;;26.08;12.25;;;16.00;99.90;;;16.21;87.29;99928.56;4842735;29;20124;-61
2022/05/24 00:59:29;;;;;;;27.50;12.88;;;15.80;99.90;;;16.17;87.06;99929.59;4842655;29;20124;-61
2022/05/24 01:01:57;;;;;;;25.27;13.18;;;15.80;99.90;;;16.24;86.85;99938.19;4843073;29;20073;-61
2022/05/24 01:04:26;;;;;;;23.73;12.38;;;15.80;99.90;;;16.25;86.69;99913.28;4842461;29;20053;-60
2022/05/24 01:06:54;;;;;;;27.77;12.73;;;15.80;99.90;;;16.16;86.98;99921.69;4826159;29;20128;-61
2022/05/24 01:09:27;;;;;;;24.00;11.82;;;15.70;99.90;;;16.05;86.65;99906.09;4842297;29;20109;-61
2022/05/24 01:12:03;;;;;;;28.40;12.20;;;15.70;99.90;;;16.15;86.67;99911.91;4842573;29;20046;-61
2022/05/24 01:14:32;;;;;;;26.80;11.95;;;15.70;99.90;;;16.21;86.57;99912.53;4842299;29;20046;-61
2022/05/24 01:17:02;;;;;;;26.20;11.45;;;15.80;99.90;;;16.08;86.24;99903.31;4842037;29;20129;-61
2022/05/24 01:19:40;;;;;;;20.48;10.43;;;15.80;99.90;;;16.18;86.54;99917.16;4842640;29;20057;-61
2022/05/24 01:22:42;;;;;;;20.15;10.35;;;15.80;99.90;;;16.17;86.54;99924.28;4842337;29;20400;-61
2022/05/24 01:25:25;;;;;;;21.95;12.02;;;15.80;99.90;;;16.21;86.24;99915.22;4842206;29;20085;-61
2022/05/24 01:27:55;;;;;;;27.88;12.35;;;15.80;99.90;;;16.23;86.30;99917.81;4842358;29;20129;-61
2022/05/24 01:30:23;;;;;;;21.92;11.82;;;15.90;99.90;;;16.09;86.66;99913.06;4842604;29;20076;-61
2022/05/24 01:38:24;;;;;;;25.67;11.82;;;15.80;99.90;;;16.01;87.28;99908.97;4842012;29;20137;-61
2022/05/24 01:40:55;;;;;;;23.83;12.88;;;15.70;99.90;;;15.97;87.35;99915.34;4841691;29;20054;-61
2022/05/24 01:43:27;;;;;;;29.60;12.95;;;15.70;99.90;;;16.05;87.68;99907.91;4842030;29;20081;-61
2022/05/24 01:46:00;;;;;;;28.77;13.95;;;15.70;99.90;;;16.05;87.53;99899.91;4840557;29;20115;-61
2022/05/24 01:48:34;;;;;;;23.48;13.00;;;15.70;99.90;;;16.07;87.55;99890.03;4825452;29;20480;-61
2022/05/24 01:51:05;;;;;;;28.67;14.10;;;15.70;99.90;;;16.03;87.63;99891.09;4841652;29;20066;-61
2022/05/24 01:53:41;;;;;;;28.27;13.27;;;15.70;99.90;;;16.09;87.80;99893.50;4841539;29;20119;-61
2022/05/24 01:56:39;;;;;;;33.70;14.80;;;15.70;99.90;;;16.14;87.73;99881.69;4841466;29;20137;-61
2022/05/24 01:59:10;;;;;;;30.95;14.90;;;15.70;99.90;;;16.11;87.62;99889.84;4841765;29;20160;-61
2022/05/24 02:01:43;;;;;;;;;;;15.70;99.90;;;16.11;87.54;99896.97;4842074;29;20054;-61
2022/05/24 02:04:12;;;;;;;28.65;14.23;;;15.80;99.90;;;16.07;87.78;99898.03;4840338;29;20050;-61
2022/05/24 02:06:40;;;;;;;23.30;14.13;;;15.70;99.90;;;16.01;88.08;99903.63;4841291;29;20151;-61
2022/05/24 02:09:11;;;;;;;32.05;14.70;;;15.70;99.90;;;16.06;88.51;99901.66;4841079;29;20076;-61
2022/05/24 02:11:40;;;;;;;29.55;15.13;;;15.70;99.90;;;16.02;88.77;99895.59;4841340;29;20421;-61
2022/05/24 02:14:19;;;;;;;28.60;15.95;;;15.70;99.90;;;16.10;88.82;99889.91;4841314;29;20081;-61
2022/05/24 02:16:52;;;;;;;28.88;16.52;;;15.70;99.90;;;15.91;88.78;99864.97;4841632;29;20411;-61
2022/05/24 02:19:24;;;;;;;29.80;16.80;;;15.70;99.90;;;16.03;89.13;99894.63;4841332;29;20385;-61
2022/05/24 02:21:59;;;;;;;30.73;16.27;;;15.70;99.90;;;16.01;89.55;99892.94;4841536;29;20068;-61
2022/05/24 02:24:28;;;;;;;30.85;16.48;;;15.60;99.90;;;15.91;89.77;99896.97;4841241;29;20160;-61
2022/05/24 02:26:59;;;;;;;33.00;16.70;;;15.60;99.90;;;15.96;89.56;99893.16;4841337;29;20152;-61
2022/05/24 02:29:29;;;;;;;38.55;16.73;;;15.60;99.90;;;15.92;89.79;99888.00;4841154;29;20137;-61
2022/05/24 02:31:58;;;;;;;33.78;16.75;;;15.60;99.90;;;15.90;89.40;99887.22;4841163;29;20056;-61
2022/05/24 02:34:27;;;;;;;30.63;15.90;;;15.60;99.90;;;15.96;89.60;99894.97;4841286;29;20057;-61
2022/05/24 02:36:55;;;;;;;35.55;15.32;;;15.60;99.90;;;15.97;89.66;99894.00;4840979;29;20050;-61
2022/05/24 02:39:23;;;;;;;28.30;13.70;;;15.60;99.90;;;15.91;89.53;99897.81;4841204;29;20056;-61
2022/05/24 02:41:51;;;;;;;26.40;12.05;;;15.60;99.90;;;15.83;90.04;99894.59;4841041;29;20053;-61
2022/05/24 02:44:19;;;;;;;28.35;12.00;;;15.50;99.90;;;15.83;89.91;99888.41;4840987;29;20046;-61
2022/05/24 02:46:49;;;;;;;23.23;9.77;;;15.50;99.90;;;15.87;89.87;99896.19;4840828;29;20136;-61
2022/05/24 02:49:17;;;;;;;24.67;9.10;;;15.50;99.90;;;15.85;89.01;99898.06;4841244;29;20050;-61
2022/05/24 02:51:47;;;;;;;21.23;7.53;;;15.50;99.90;;;15.86;89.16;99896.25;4841146;29;20102;-61
2022/05/24 02:54:15;;;;;;;28.58;7.95;;;15.40;99.90;;;15.85;88.98;99903.38;4840835;29;20563;-61
2022/05/24 02:56:44;;;;;;;22.73;7.35;;;15.50;99.90;;;15.68;88.58;99894.38;4841147;29;20508;-61
2022/05/24 02:59:12;;;;;;;27.65;6.88;;;15.40;99.90;;;15.72;88.36;99895.97;4840938;29;20429;-61
2022/05/24 03:01:40;;;;;;;18.83;6.45;;;15.40;99.90;;;15.58;88.53;99898.34;4841228;29;20128;-61
2022/05/24 03:04:11;;;;;;;24.17;7.50;;;15.30;99.90;;;15.62;88.92;99895.47;4841327;29;20068;-61
2022/05/24 03:09:36;;;;;;;26.17;6.90;;;15.30;99.90;;;15.74;88.27;99896.75;4840237;29;20114;-61
2022/05/24 03:14:56;;;;;;;20.45;7.45;;;15.40;99.90;;;15.50;88.10;99890.66;4841131;29;20140;-61
2022/05/24 03:17:25;;;;;;;22.00;7.43;;;15.30;99.90;;;15.66;87.96;99913.06;4824592;29;20054;-60
2022/05/24 03:19:55;;;;;;;23.77;6.20;;;15.30;99.90;;;15.74;87.62;99915.44;4842558;29;20046;-61
2022/05/24 03:22:23;;;;;;;21.08;7.32;;;15.40;99.90;;;15.78;87.39;99919.72;4844445;29;20060;-61
2022/05/24 03:24:51;;;;;;;21.98;6.82;;;15.40;99.90;;;15.80;87.20;99923.19;4844143;29;20077;-61
2022/05/24 03:27:20;;;;;;;22.13;6.57;;;15.40;99.90;;;15.79;86.90;99929.47;4844674;29;20061;-61
2022/05/24 03:29:49;;;;;;;23.33;6.93;;;15.40;99.90;;;15.69;87.43;99936.09;4844096;29;20042;-61
2022/05/24 03:32:19;;;;;;;18.30;5.88;;;15.30;99.90;;;15.11;87.24;99869.09;4844150;29;20208;-61
2022/05/24 03:34:47;;;;;;;22.60;6.18;;;15.20;99.90;;;15.48;87.46;99945.81;4844454;29;20157;-61
2022/05/24 03:37:18;;;;;;;20.35;6.43;;;15.20;99.90;;;15.50;88.01;99945.75;4844008;29;20557;-62
2022/05/24 03:39:47;;;;;;;21.65;6.75;;;15.20;99.90;;;15.44;88.25;99943.31;4844059;29;20042;-61
2022/05/24 03:42:15;;;;;;;18.98;6.53;;;15.10;99.90;;;15.55;88.04;99936.63;4844170;29;20045;-61
2022/05/24 03:44:43;;;;;;;22.63;6.07;;;15.10;99.90;;;15.61;87.56;99932.84;4844389;29;20483;-61
2022/05/24 03:47:12;;;;;;;20.50;6.40;;;15.20;99.90;;;15.56;87.54;99942.84;4844423;29;20531;-62
2022/05/24 03:49:41;;;;;;;18.75;6.25;;;15.20;99.90;;;15.64;87.33;99951.41;4843894;29;20131;-61
2022/05/24 03:52:09;;;;;;;21.52;5.75;;;15.20;99.90;;;15.39;86.83;99952.31;4844492;29;20137;-61
2022/05/24 03:54:39;;;;;;;14.77;5.40;;;15.10;99.90;;;15.34;86.98;99964.97;4844465;29;20179;-61
2022/05/24 03:59:54;;;;;;;21.83;5.82;;;15.00;99.90;;;15.42;86.61;99972.69;4843675;29;20074;-61
2022/05/24 04:02:22;;;;;;;19.75;5.85;;;15.10;99.90;;;15.36;86.70;99973.78;4844133;29;20473;-61
2022/05/24 04:04:50;;;;;;;18.10;5.63;;;15.10;99.90;;;15.48;86.48;99982.25;4843803;29;20400;-62
2022/05/24 04:07:19;;;;;;;18.58;6.07;;;15.10;99.90;;;15.53;86.30;99982.94;4843660;29;20100;-62
2022/05/24 04:09:50;;;;;;;16.45;5.25;;;15.10;99.90;;;15.44;86.09;99986.84;4843713;29;20053;-63
2022/05/24 04:12:20;;;;;;;22.08;5.97;;;15.10;99.90;;;15.47;86.17;99985.81;4843691;29;20057;-62
2022/05/24 04:14:49;;;;;;;18.38;5.47;;;15.10;99.90;;;15.45;85.71;99969.06;4843583;29;20050;-62
2022/05/24 04:17:17;;;;;;;18.27;5.22;;;15.10;99.90;;;15.51;85.75;99964.34;4843187;29;20050;-62
2022/05/24 04:19:45;;;;;;;14.55;5.85;;;15.10;99.90;;;15.56;85.06;99972.16;4843200;29;20557;-63
2022/05/24 04:22:14;;;;;;;16.33;4.75;;;15.20;99.90;;;15.05;84.89;99898.59;4843094;29;20057;-62
2022/05/24 04:24:42;;;;;;;16.90;5.55;;;15.20;99.90;;;15.70;84.95;99980.50;4842981;29;20579;-63
2022/05/24 04:27:12;;;;;;;17.23;6.07;;;15.30;99.90;;;15.72;84.84;99986.59;4843498;29;20492;-63
2022/05/24 04:29:42;;;;;;;18.30;6.38;;;15.30;99.90;;;15.70;85.64;99975.16;4843201;29;20137;-62
2022/05/24 04:32:14;;;;;;;30.45;8.35;;;15.40;99.90;;;15.75;86.42;99990.03;4842338;29;20204;-63
2022/05/24 04:34:43;;;;;;;23.40;8.32;;;15.40;99.90;;;15.72;86.50;99975.94;4842904;29;20052;-63
2022/05/24 04:37:12;;;;;;;19.17;7.90;;;15.40;99.90;;;15.61;86.67;99983.50;4842696;29;20141;-63
2022/05/24 04:39:40;;;;;;;17.13;8.55;;;15.30;99.90;;;15.50;86.34;99970.63;4842715;29;20045;-62
2022/05/24 04:42:19;;;;;;;20.25;8.20;;;15.20;99.90;;;15.53;86.64;99980.25;4842622;29;20161;-63
2022/05/24 04:44:52;;;;;;;17.25;7.93;;;15.20;99.90;;;15.50;86.70;99983.94;4842559;29;20152;-63
2022/05/24 04:47:22;;;;;;;15.10;7.57;;;15.10;99.90;;;15.52;86.46;99983.88;4842544;29;20129;-63
2022/05/24 04:49:54;;;;;;;15.63;7.50;;;15.20;99.90;;;15.53;86.51;99974.94;4842842;29;20065;-63
2022/05/24 04:52:31;;;;;;;17.00;8.38;;;15.10;99.90;;;15.47;86.85;99975.16;4842790;29;20128;-63
2022/05/24 04:55:01;;;;;;;19.48;7.95;;;15.10;99.90;;;15.39;86.78;99978.09;4842333;29;20062;-63
2022/05/24 04:57:32;;;;;;;20.02;8.02;;;15.10;99.90;;;15.32;87.04;99987.25;4825979;29;20053;-63
2022/05/24 05:00:02;;;;;;;21.38;8.27;;;15.00;99.90;;;15.35;87.23;99988.00;4842869;29;20137;-63
2022/05/24 05:02:30;;;;;;;20.35;8.07;;;15.00;99.90;;;15.29;87.32;99988.22;4842305;29;20046;-63
2022/05/24 05:04:59;;;;;;;17.33;6.72;;;15.00;99.90;;;15.19;86.96;99981.50;4842200;29;20048;-63
2022/05/24 05:07:27;;;;;;;16.85;7.72;;;14.90;99.90;;;15.13;87.19;99997.75;4842098;29;20042;-62
2022/05/24 05:10:01;;;;;;;21.88;7.93;;;14.80;99.90;;;15.21;87.53;100011.63;4842372;29;20062;-63
2022/05/24 05:12:29;;;;;;;19.95;8.10;;;14.90;99.90;;;15.19;87.51;100018.81;4842034;29;20052;-63
2022/05/24 05:14:58;;;;;;;15.25;7.07;;;14.90;99.90;;;15.07;87.27;100007.75;4841916;29;20469;-63
2022/05/24 05:17:27;;;;;;;17.02;8.07;;;14.80;99.90;;;15.08;87.87;100026.31;4841923;29;20515;-63
2022/05/24 05:19:59;;;;;;;18.33;8.25;;;14.80;99.90;;;15.10;87.30;100018.28;4842081;29;20392;-63
2022/05/24 05:22:29;;;;;;;17.88;8.18;;;14.80;99.90;;;15.08;87.20;100028.13;4842171;29;20449;-63
2022/05/24 05:24:57;;;;;;;19.52;8.02;;;14.70;99.90;;;15.09;87.24;100013.88;4841716;29;20132;-63
2022/05/24 05:27:25;;;;;;;14.05;8.30;;;14.80;99.90;;;15.23;87.46;100024.91;4841717;29;20061;-63
2022/05/24 05:32:41;;;;;;;19.65;10.73;;;14.90;99.90;;;15.13;86.95;100023.50;4841638;29;20520;-63
2022/05/24 05:35:09;;;;;;;18.30;10.95;;;14.80;99.90;;;15.05;86.78;100025.56;4841873;29;20393;-63
2022/05/24 05:37:42;;;;;;;21.35;11.88;;;14.80;99.90;;;15.11;86.88;100031.56;4841627;29;20141;-63
2022/05/24 05:40:13;;;;;;;18.67;11.60;;;14.80;99.90;;;15.00;86.58;100033.72;4841560;29;20088;-63
2022/05/24 05:42:42;;;;;;;;;;;14.70;99.90;;;15.10;87.14;100045.78;4841838;29;20197;-63
2022/05/24 05:45:15;;;;;;;14.50;11.00;;;14.70;99.90;;;15.11;87.29;100033.34;4841550;29;20048;-63
2022/05/24 05:47:44;;;;;;;19.42;10.77;;;14.80;99.90;;;15.19;87.05;100042.78;4841380;29;20136;-63
2022/05/24 05:50:13;;;;;;;19.38;9.98;;;14.90;99.90;;;15.17;87.04;100043.78;4824874;29;20068;-63
2022/05/24 05:52:41;;;;;;;21.77;9.40;;;14.90;99.90;;;15.07;87.15;100067.22;4841823;29;20400;-63
2022/05/24 05:55:10;;;;;;;15.00;9.73;;;14.80;99.90;;;15.01;87.06;100059.44;4841291;29;20068;-62
2022/05/24 05:57:41;;;;;;;14.85;9.60;;;14.70;99.90;;;14.97;87.00;100071.13;4841326;29;20081;-62
2022/05/24 06:00:11;;;;;;;17.42;9.75;;;14.70;99.90;;;14.91;87.36;100058.03;4841143;29;20094;-62
2022/05/24 06:02:47;;;;;;;18.08;10.73;;;14.60;99.90;;;14.86;88.02;100075.97;4841735;29;20121;-62
2022/05/24 06:05:16;;;;;;;15.30;10.50;;;14.50;99.90;;;14.86;88.79;100077.75;4825173;29;20057;-62
2022/05/24 06:07:44;;;;;;;19.50;11.15;;;14.50;99.90;;;14.81;89.89;100085.88;4841689;29;20081;-62
2022/05/24 06:10:14;;;;;;;20.60;10.88;;;14.50;99.90;;;14.84;90.18;100091.13;4841467;29;20065;-62
2022/05/24 06:12:42;;;;;;;15.98;10.38;;;14.50;99.90;;;14.79;90.14;100082.41;4841239;29;20052;-62
2022/05/24 06:15:11;;;;;;;18.85;10.02;;;14.50;99.90;;;14.84;91.08;100092.91;4841547;29;20045;-62
2022/05/24 06:17:48;;;;;;;17.85;9.88;;;14.50;99.90;;;14.75;91.47;100102.06;4841695;29;20081;-62
2022/05/24 06:20:17;;;;;;;22.73;9.48;;;14.50;99.90;;;14.59;92.74;100106.19;4841261;29;20377;-62
2022/05/24 06:22:49;;;;;;;19.45;10.38;;;14.30;99.90;;;14.64;93.28;100108.66;4841275;29;20507;-62
2022/05/24 06:25:18;;;;;;;13.38;9.30;;;14.30;99.90;;;14.72;93.61;100112.81;4841329;29;20050;-62
2022/05/24 06:27:46;;;;;;;16.88;8.80;;;14.30;99.90;;;14.51;93.26;100113.53;4841481;29;20521;-62
2022/05/24 06:30:16;;;;;;;17.00;8.05;;;14.30;99.90;;;14.40;93.53;100121.00;4841515;29;20062;-61
2022/05/24 06:32:46;;;;;;;11.05;7.75;;;14.20;99.90;;;14.44;93.30;100119.94;4841278;29;20064;-62
2022/05/24 06:35:14;;;;;;;9.68;6.65;;;14.20;99.90;;;14.30;92.54;100112.41;4841889;29;20058;-62
2022/05/24 06:37:43;;;;;;;17.73;7.50;;;14.00;99.90;;;14.35;93.31;100120.25;4841492;29;20045;-62
2022/05/24 06:40:15;;;;;;;13.35;6.68;;;14.00;99.90;;;14.32;92.94;100117.72;4841370;29;20057;-62
2022/05/24 06:42:43;;;;;;;10.00;5.75;;;14.00;99.90;;;14.29;92.14;100129.31;4841739;29;20052;-62
2022/05/24 06:45:12;;;;;;;11.80;6.10;;;14.00;99.90;;;14.37;91.74;100132.59;4842062;29;20145;-61
2022/05/24 06:47:40;;;;;;;10.60;6.00;;;14.00;99.90;;;14.40;91.62;100134.31;4841304;29;20114;-61
2022/05/24 06:50:14;;;;;;;10.27;6.65;;;14.10;99.90;;;14.50;91.85;100143.72;4841411;29;20069;-62
2022/05/24 06:52:45;;;;;;;12.18;7.35;;;14.20;99.90;;;14.31;92.33;100134.56;4838488;29;20058;-61
2022/05/24 06:55:20;;;;;;;15.95;7.72;;;14.00;99.90;;;14.32;93.44;100136.31;4843975;29;20053;-62
2022/05/24 06:57:48;;;;;;;13.80;7.60;;;14.00;99.90;;;14.22;93.83;100146.34;4844619;29;20046;-61
2022/05/24 07:03:15;;;;;;;10.77;6.38;;;14.00;99.90;;;14.33;94.06;100154.91;4811902;29;20054;-61
2022/05/24 07:05:46;;;;;;;10.52;5.40;;;14.00;99.90;;;14.17;93.64;100140.28;4844541;29;20054;-61
2022/05/24 07:08:18;;;;;;;10.50;5.88;;;13.90;99.90;;;14.25;92.80;100148.91;4844801;29;20383;-60
2022/05/24 07:10:47;;;;;;;11.88;5.55;;;13.90;99.90;;;14.21;93.36;100163.22;4844372;29;20050;-62
2022/05/24 07:13:20;;;;;;;10.60;5.68;;;13.90;99.90;;;14.26;94.05;100158.66;4844332;29;20042;-62
2022/05/24 07:15:50;;;;;;;10.35;5.55;;;13.90;99.90;;;14.16;94.17;100166.94;4844807;29;20547;-62
2022/05/24 07:18:20;;;;;;;11.80;5.10;;;13.90;99.90;;;14.11;93.68;100164.41;4844409;29;20057;-63
2022/05/24 07:20:49;;;;;;;8.65;5.00;;;13.80;99.90;;;14.04;94.58;100168.16;4844299;29;20125;-63
2022/05/24 07:23:21;;;;;;;10.70;5.10;;;13.70;99.90;;;14.00;95.00;100165.63;4844305;29;20037;-63
2022/05/24 07:25:50;;;;;;;14.15;6.32;;;13.70;99.90;;;13.99;95.54;100182.53;4844289;29;20121;-62
2022/05/24 07:28:24;;;;;;;9.52;6.18;;;13.60;99.90;;;14.16;95.69;100169.59;4844431;29;20050;-62
2022/05/24 07:30:52;;;;;;;10.27;5.88;;;13.80;99.90;;;14.16;95.17;100167.81;4844010;29;20087;-63
2022/05/24 07:33:21;;;;;;;9.20;5.43;;;13.80;99.90;;;14.20;95.31;100176.56;4843928;29;20137;-62
2022/05/24 07:35:51;;;;;;;6.78;4.90;;;13.90;99.90;;;14.32;95.70;100178.91;4843934;29;20058;-62
2022/05/24 07:38:19;;;;;;;10.15;4.32;;;14.00;99.90;;;14.43;95.27;100182.97;4844087;29;20081;-62
2022/05/24 07:46:31;;;;;;;9.15;3.83;;;14.30;99.90;;;14.91;92.13;100193.81;4842685;29;20049;-63
2022/05/24 07:49:00;;;;;;;12.20;4.63;;;14.60;99.90;;;15.08;91.09;100202.13;4843586;29;20054;-64
2022/05/24 07:51:30;;;;;;;7.65;3.90;;;14.70;99.90;;;15.19;90.14;100199.97;4843581;29;20453;-61
2022/05/24 07:53:58;;;;;;;6.82;4.05;;;14.90;99.90;;;15.27;89.86;100205.91;4843900;29;20060;-62
2022/05/24 07:56:26;;;;;;;6.85;4.25;;;15.00;99.90;;;15.20;89.50;100207.06;4843552;29;20449;-62
2022/05/24 07:58:55;;;;;;;5.97;3.72;;;14.90;99.90;;;15.02;88.90;100215.66;4843888;29;20141;-61
2022/05/24 08:01:23;;;;;;;5.20;3.85;;;14.70;99.90;;;14.91;88.62;100215.13;4843564;29;20399;-62
2022/05/24 08:03:52;;;;;;;10.52;4.45;;;14.60;99.90;;;15.00;89.21;100219.31;4843861;29;20046;-62
2022/05/24 08:06:21;;;;;;;7.13;3.90;;;14.60;99.90;;;14.97;88.58;100225.59;4842597;29;20061;-61
2022/05/24 08:08:51;;;;;;;6.53;4.18;;;14.60;99.90;;;14.83;88.55;100225.16;4843464;29;20137;-63
2022/05/24 08:11:19;;;;;;;4.57;3.95;;;14.50;99.90;;;15.02;88.87;100228.13;4843394;29;20145;-62
2022/05/24 08:13:48;;;;;;;5.93;4.38;;;14.60;99.90;;;15.09;89.24;100235.84;4843856;29;20054;-63
2022/05/24 08:16:16;;;;;;;5.15;4.30;;;14.70;99.90;;;15.17;88.82;100236.47;4843809;29;20038;-63
2022/05/24 08:18:45;;;;;;;6.90;4.65;;;14.80;99.90;;;15.15;88.67;100242.75;4843349;29;20144;-63
2022/05/24 08:21:13;;;;;;;10.52;5.32;;;14.80;99.90;;;15.19;88.51;100242.59;4843203;29;20062;-63
2022/05/24 08:23:42;;;;;;;7.15;4.93;;;14.80;99.90;;;15.36;89.11;100248.25;4843160;29;20106;-63
2022/05/24 08:26:12;;;;;;;9.27;5.75;;;15.00;99.90;;;15.42;88.69;100255.19;4843386;29;20111;-63
2022/05/24 08:28:43;;;;;;;11.70;6.15;;;15.10;99.90;;;15.29;86.71;100252.03;4843603;29;20053;-63
2022/05/24 08:31:11;;;;;;;10.77;6.53;;;15.00;99.90;;;15.25;85.76;100262.84;4843121;29;20140;-63
2022/05/24 08:33:41;;;;;;;9.05;6.18;;;15.00;99.90;;;15.46;86.05;100267.50;4843100;29;20050;-64
2022/05/24 08:36:10;;;;;;;11.98;7.13;;;15.10;99.90;;;15.63;86.42;100272.25;4843274;29;20140;-66
2022/05/24 08:38:40;;;;;;;10.07;6.45;;;15.20;99.90;;;15.72;86.25;100270.13;4842994;29;20074;-65
2022/05/24 08:41:20;;;;;;;7.03;5.38;;;15.40;99.90;;;15.56;84.13;100276.06;4843239;29;20414;-64
2022/05/24 08:49:58;;;;;;;6.68;5.18;;;15.00;99.90;;;15.46;82.45;100298.59;4842794;29;20084;-64
2022/05/24 08:52:34;;;;;;;5.55;4.72;;;15.20;99.90;;;15.62;82.49;100313.16;4842843;29;20140;-63
2022/05/24 08:55:05;;;;;;;8.07;4.57;;;15.30;99.90;;;15.50;82.06;100306.47;4842986;29;20065;-64
2022/05/24 08:57:46;;;;;;;7.38;4.45;;;15.30;99.90;;;15.63;81.28;100314.91;4842859;29;20098;-63
2022/05/24 09:00:20;;;;;;;8.95;5.00;;;15.30;99.90;;;15.46;80.96;100287.94;4842391;29;20393;-64
2022/05/24 09:02:49;;;;;;;8.48;5.20;;;15.30;99.90;;;15.74;81.32;100320.72;4842484;29;20049;-63
2022/05/24 09:05:22;;;;;;;6.53;4.95;;;15.40;99.90;;;15.53;81.69;100319.66;4842620;29;20421;-63
2022/05/24 09:08:16;;;;;;;9.05;4.88;;;15.20;99.90;;;15.53;82.05;100325.00;4842707;29;20110;-63
2022/05/24 09:10:50;;;;;;;6.40;5.40;;;15.20;99.90;;;15.54;81.88;100328.53;4842471;29;20081;-63
2022/05/24 09:14:01;;;;;;;10.05;5.00;;;15.20;99.90;;;15.44;81.13;100332.44;4842514;29;20046;-63
2022/05/24 09:16:39;;;;;;;5.00;4.32;;;15.20;99.90;;;15.29;79.91;100326.63;4842219;29;20049;-63
2022/05/24 09:19:17;;;;;;;7.43;4.28;;;15.00;99.90;;;15.36;80.25;100340.66;4842185;29;20053;-63
2022/05/24 09:21:51;;;;;;;8.60;4.55;;;15.00;99.90;;;15.51;80.69;100339.28;4842534;29;20057;-63
2022/05/24 09:24:31;;;;;;;7.40;5.32;;;15.20;99.90;;;15.42;80.79;100327.16;4842250;29;20061;-62
2022/05/24 09:27:09;;;;;;;10.40;5.40;;;15.20;99.90;;;15.58;80.99;100352.38;4842202;29;20085;-63
2022/05/24 09:29:57;;;;;;;11.95;5.80;;;15.30;99.90;;;15.49;80.93;100358.00;4842175;29;20315;-63
2022/05/24 09:32:38;;;;;;;11.13;5.18;;;15.20;99.90;;;15.50;81.63;100342.91;4842123;29;20054;-63
2022/05/24 09:35:26;;;;;;;10.32;6.30;;;15.30;99.90;;;15.70;80.69;100365.28;4842258;29;20400;-63
2022/05/24 09:38:13;;;;;;;15.20;6.03;;;15.30;99.90;;;15.73;80.96;100373.22;4842181;29;20118;-62
2022/05/24 09:40:53;;;;;;;10.25;6.35;;;15.40;99.90;;;15.70;80.95;100383.97;4842410;29;20057;-63
2022/05/24 09:43:32;;;;;;;11.50;7.03;;;15.40;99.90;;;15.75;80.79;100382.03;4842370;29;20050;-62
2022/05/24 09:46:07;;;;;;;11.02;6.20;;;15.50;99.90;;;15.97;80.61;100387.50;4842225;29;20078;-63
2022/05/24 09:48:38;;;;;;;10.85;6.72;;;15.60;99.90;;;15.91;80.37;100387.72;4842316;29;20439;-63
2022/05/24 09:51:13;;;;;;;9.93;5.65;;;15.60;99.90;;;15.97;79.42;100391.03;4842071;29;20054;-63
2022/05/24 09:53:52;;;;;;;11.52;5.63;;;15.70;99.90;;;15.97;78.54;100392.81;4842035;29;20507;-62
2022/05/24 09:56:24;;;;;;;8.98;5.25;;;15.70;99.90;;;16.06;78.42;100408.53;4841818;29;20070;-63
2022/05/24 09:58:57;;;;;;;11.00;5.93;;;15.80;99.90;;;16.02;77.75;100397.09;4841800;29;20081;-63
2022/05/24 10:01:40;;;;;;;11.10;5.43;;;15.80;99.90;;;16.13;77.49;100402.06;4841997;29;20073;-63
2022/05/24 10:04:19;;;;;;;12.85;6.35;;;15.80;99.90;;;15.63;77.64;100289.13;4842005;29;20400;-62
2022/05/24 10:06:59;;;;;;;12.90;5.82;;;16.00;99.90;;;16.44;78.11;100405.41;4842013;29;20086;-63
2022/05/24 10:09:50;;;;;;;10.57;5.50;;;16.10;99.90;;;16.70;77.52;100417.84;4841924;29;20172;-62
2022/05/24 10:12:36;;;;;;;;;;;16.30;99.90;;;16.54;76.03;100412.19;4842410;29;20096;-62
2022/05/24 10:15:17;;;;;;;7.35;5.47;;;16.30;99.90;;;16.68;75.53;100420.59;4841640;29;19930;-62
2022/05/24 10:17:56;;;;;;;;;;;16.40;99.90;;;16.51;74.60;100422.13;4842309;29;20056;-62
2022/05/24 10:20:35;;;;;;;16.35;5.00;;;16.30;99.90;;;16.30;75.04;100434.38;4841463;29;20018;-62
2022/05/24 10:23:10;;;;;;;11.43;5.07;;;16.00;99.90;;;16.40;75.76;100440.25;4841535;29;20128;-62
2022/05/24 10:25:46;;;;;;;11.50;5.32;;;16.10;99.90;;;16.60;76.93;100443.13;4841721;29;20136;-62
2022/05/24 10:28:36;;;;;;;11.35;5.28;;;16.20;99.90;;;16.60;75.92;100438.69;4841430;29;20128;-62
2022/05/24 10:31:18;;;;;;;8.77;4.85;;;16.30;99.90;;;16.64;76.91;100445.66;4845236;29;20452;-62
2022/05/24 10:40:09;;;;;;;7.30;4.35;;;16.60;99.90;;;17.12;73.09;100451.88;4844016;29;20134;-62
2022/05/24 10:43:02;;;;;;;12.85;4.60;;;16.80;99.90;;;17.41;73.04;100453.41;4845234;29;20076;-62
2022/05/24 10:45:50;;;;;;;13.18;4.65;;;17.00;99.90;;;17.57;72.33;100451.03;4844927;29;20130;-62
2022/05/24 10:48:30;;;;;;;7.90;4.18;;;17.20;99.90;;;17.58;71.33;100452.78;4844897;29;20283;-62
2022/05/24 10:51:09;;;;;;;7.07;4.03;;;17.30;99.90;;;17.64;71.88;100444.50;4844971;29;20169;-64
2022/05/24 10:53:47;;;;;;;10.23;4.05;;;17.40;99.90;;;17.88;72.27;100456.91;4844787;29;20522;-65
2022/05/24 10:56:29;;;;;;;9.55;4.07;;;17.60;99.90;;;18.01;70.24;100463.50;4844842;29;20571;-63
2022/05/24 10:59:06;;;;;;;10.98;4.45;;;17.70;99.90;;;17.85;67.13;100441.84;4844747;29;20102;-63
2022/05/24 11:01:43;;;;;;;9.93;4.25;;;17.70;99.90;;;18.08;67.20;100458.78;4844920;29;20073;-63
2022/05/24 11:04:24;;;;;;;9.38;4.00;;;17.80;99.90;;;17.99;65.61;100460.88;4844701;29;20545;-62
2022/05/24 11:06:59;;;;;;;;;;;17.70;99.90;;;18.17;67.35;100464.59;4845021;29;20049;-62
2022/05/24 11:09:32;;;;;;;6.47;3.70;;;17.80;99.90;;;18.28;65.46;100473.06;4844516;29;20375;-62